Weather at Antwerpen/Deurne Airport- EBAW


metar: EBAW 241320Z 34006KT 310V020 5000 -RA FEW035 SCT046 16/13 Q1018 NOSIG

13 minuten geleden, om 13:20 UTC, de wind blies met windsnelheden van 3.1 meter per seconde(6.9 mijl per uur) vanuit Noord-noordwest nabij Antwerpen/Deurne. De temperatuur was 16 °C (61 °F), en de barometerdruk was 1,018 hPa (30.06 inHg). De relatieve vochtigheid was 82.4%. er was weinig bewolking op een hoogte van 1067 meter (3500 voet) en verspreide bewolking op een hoogte van 1402 meter (4600 voet). De zichtbaarheid was 5.0 kilometer (3.1 mijl). Het huidige weer is Licht Regen .

temperature image   windir image sky image 

Last 24 hour graph Antwerpen/Deurne - EBAW